sensor_id;sensor_type;location;lat;lon;timestamp;P1;durP1;ratioP1;P2;durP2;ratioP2
76284;SDS011;71676;50.998;7.098;2024-03-23T00:52:47;13.13;;;5.15;;
76284;SDS011;71676;50.998;7.098;2024-03-23T00:55:14;13.52;;;5.50;;
76284;SDS011;71676;50.998;7.098;2024-03-23T01:00:06;14.55;;;5.97;;
76284;SDS011;71676;50.998;7.098;2024-03-23T01:02:35;17.05;;;6.18;;
76284;SDS011;71676;50.998;7.098;2024-03-23T01:05:02;15.07;;;6.43;;
76284;SDS011;71676;50.998;7.098;2024-03-23T01:09:55;15.75;;;6.18;;
76284;SDS011;71676;50.998;7.098;2024-03-23T01:12:21;12.80;;;5.57;;
76284;SDS011;71676;50.998;7.098;2024-03-23T01:14:47;17.05;;;5.78;;
76284;SDS011;71676;50.998;7.098;2024-03-23T01:17:13;16.25;;;5.93;;
76284;SDS011;71676;50.998;7.098;2024-03-23T01:19:40;14.05;;;5.78;;
76284;SDS011;71676;50.998;7.098;2024-03-23T01:22:06;15.57;;;6.18;;
76284;SDS011;71676;50.998;7.098;2024-03-23T01:24:35;13.70;;;5.88;;
76284;SDS011;71676;50.998;7.098;2024-03-23T01:29:28;14.15;;;4.90;;
76284;SDS011;71676;50.998;7.098;2024-03-23T01:31:54;12.95;;;4.80;;
76284;SDS011;71676;50.998;7.098;2024-03-23T01:34:21;13.00;;;4.60;;
76284;SDS011;71676;50.998;7.098;2024-03-23T01:39:13;10.93;;;4.38;;
76284;SDS011;71676;50.998;7.098;2024-03-23T01:41:39;11.63;;;4.70;;
76284;SDS011;71676;50.998;7.098;2024-03-23T01:44:08;15.43;;;4.57;;
76284;SDS011;71676;50.998;7.098;2024-03-23T01:46:34;14.02;;;4.43;;
76284;SDS011;71676;50.998;7.098;2024-03-23T01:49:01;11.07;;;4.53;;
76284;SDS011;71676;50.998;7.098;2024-03-23T01:51:28;13.40;;;4.43;;
76284;SDS011;71676;50.998;7.098;2024-03-23T01:53:55;17.30;;;5.97;;
76284;SDS011;71676;50.998;7.098;2024-03-23T01:56:22;12.38;;;4.78;;
76284;SDS011;71676;50.998;7.098;2024-03-23T01:58:48;10.18;;;4.13;;
76284;SDS011;71676;50.998;7.098;2024-03-23T02:01:16;9.82;;;3.80;;
76284;SDS011;71676;50.998;7.098;2024-03-23T02:03:44;10.48;;;3.42;;
76284;SDS011;71676;50.998;7.098;2024-03-23T02:06:10;9.07;;;3.20;;
76284;SDS011;71676;50.998;7.098;2024-03-23T02:08:36;8.93;;;2.50;;
76284;SDS011;71676;50.998;7.098;2024-03-23T02:11:02;9.00;;;2.42;;
76284;SDS011;71676;50.998;7.098;2024-03-23T02:13:29;9.40;;;2.38;;
76284;SDS011;71676;50.998;7.098;2024-03-23T02:15:56;7.82;;;2.47;;
76284;SDS011;71676;50.998;7.098;2024-03-23T02:18:24;11.57;;;2.70;;
76284;SDS011;71676;50.998;7.098;2024-03-23T02:20:50;9.85;;;2.78;;
76284;SDS011;71676;50.998;7.098;2024-03-23T02:23:18;7.25;;;2.83;;
76284;SDS011;71676;50.998;7.098;2024-03-23T02:25:43;8.73;;;2.63;;
76284;SDS011;71676;50.998;7.098;2024-03-23T02:28:10;10.73;;;2.88;;
76284;SDS011;71676;50.998;7.098;2024-03-23T02:30:36;9.48;;;2.38;;
76284;SDS011;71676;50.998;7.098;2024-03-23T02:33:03;11.25;;;3.50;;
76284;SDS011;71676;50.998;7.098;2024-03-23T02:37:56;13.90;;;3.25;;
76284;SDS011;71676;50.998;7.098;2024-03-23T02:40:23;10.27;;;2.88;;
76284;SDS011;71676;50.998;7.098;2024-03-23T02:42:50;6.00;;;2.40;;
76284;SDS011;71676;50.998;7.098;2024-03-23T02:45:16;12.80;;;3.00;;
76284;SDS011;71676;50.998;7.098;2024-03-23T02:47:43;6.68;;;2.45;;
76284;SDS011;71676;50.998;7.098;2024-03-23T02:50:08;6.95;;;2.53;;
76284;SDS011;71676;50.998;7.098;2024-03-23T02:52:35;7.53;;;3.28;;
76284;SDS011;71676;50.998;7.098;2024-03-23T02:55:01;11.15;;;3.67;;
76284;SDS011;71676;50.998;7.098;2024-03-23T02:57:29;14.02;;;3.40;;
76284;SDS011;71676;50.998;7.098;2024-03-23T02:59:55;9.13;;;3.30;;
76284;SDS011;71676;50.998;7.098;2024-03-23T03:02:22;9.07;;;2.80;;
76284;SDS011;71676;50.998;7.098;2024-03-23T03:04:47;8.35;;;2.60;;
76284;SDS011;71676;50.998;7.098;2024-03-23T03:07:14;7.70;;;2.50;;
76284;SDS011;71676;50.998;7.098;2024-03-23T03:09:40;7.40;;;2.30;;
76284;SDS011;71676;50.998;7.098;2024-03-23T03:12:07;7.38;;;2.72;;
76284;SDS011;71676;50.998;7.098;2024-03-23T03:14:34;8.52;;;2.55;;
76284;SDS011;71676;50.998;7.098;2024-03-23T03:17:00;7.43;;;2.40;;
76284;SDS011;71676;50.998;7.098;2024-03-23T03:19:26;5.80;;;1.88;;
76284;SDS011;71676;50.998;7.098;2024-03-23T03:21:53;8.98;;;2.20;;
76284;SDS011;71676;50.998;7.098;2024-03-23T03:24:19;6.75;;;1.98;;
76284;SDS011;71676;50.998;7.098;2024-03-23T03:26:45;6.60;;;2.20;;
76284;SDS011;71676;50.998;7.098;2024-03-23T03:29:11;7.03;;;2.60;;
76284;SDS011;71676;50.998;7.098;2024-03-23T03:31:39;5.32;;;2.08;;
76284;SDS011;71676;50.998;7.098;2024-03-23T03:34:05;11.35;;;2.40;;
76284;SDS011;71676;50.998;7.098;2024-03-23T03:36:32;7.03;;;2.42;;
76284;SDS011;71676;50.998;7.098;2024-03-23T03:38:57;5.88;;;2.13;;
76284;SDS011;71676;50.998;7.098;2024-03-23T03:41:24;9.00;;;2.08;;
76284;SDS011;71676;50.998;7.098;2024-03-23T03:43:49;6.90;;;2.28;;
76284;SDS011;71676;50.998;7.098;2024-03-23T03:46:16;7.85;;;2.30;;
76284;SDS011;71676;50.998;7.098;2024-03-23T03:48:43;7.38;;;2.22;;
76284;SDS011;71676;50.998;7.098;2024-03-23T03:51:12;7.93;;;2.17;;
76284;SDS011;71676;50.998;7.098;2024-03-23T03:53:38;7.95;;;2.80;;
76284;SDS011;71676;50.998;7.098;2024-03-23T03:56:05;9.95;;;2.50;;
76284;SDS011;71676;50.998;7.098;2024-03-23T03:58:30;6.38;;;2.72;;
76284;SDS011;71676;50.998;7.098;2024-03-23T04:00:57;8.25;;;2.78;;
76284;SDS011;71676;50.998;7.098;2024-03-23T04:03:23;9.18;;;2.78;;
76284;SDS011;71676;50.998;7.098;2024-03-23T04:05:52;8.93;;;2.88;;
76284;SDS011;71676;50.998;7.098;2024-03-23T04:08:18;9.10;;;3.70;;
76284;SDS011;71676;50.998;7.098;2024-03-23T04:10:45;5.85;;;2.45;;
76284;SDS011;71676;50.998;7.098;2024-03-23T04:13:10;9.40;;;2.70;;
76284;SDS011;71676;50.998;7.098;2024-03-23T04:15:37;7.65;;;2.65;;
76284;SDS011;71676;50.998;7.098;2024-03-23T04:18:03;8.85;;;2.88;;
76284;SDS011;71676;50.998;7.098;2024-03-23T04:20:30;12.68;;;2.97;;
76284;SDS011;71676;50.998;7.098;2024-03-23T04:22:57;9.63;;;3.00;;
76284;SDS011;71676;50.998;7.098;2024-03-23T04:25:24;9.65;;;3.28;;
76284;SDS011;71676;50.998;7.098;2024-03-23T04:27:49;10.05;;;3.22;;
76284;SDS011;71676;50.998;7.098;2024-03-23T04:30:16;9.57;;;2.38;;
76284;SDS011;71676;50.998;7.098;2024-03-23T04:32:42;8.93;;;2.88;;
76284;SDS011;71676;50.998;7.098;2024-03-23T04:35:09;8.65;;;2.83;;
76284;SDS011;71676;50.998;7.098;2024-03-23T04:37:35;9.57;;;2.80;;
76284;SDS011;71676;50.998;7.098;2024-03-23T04:40:03;8.45;;;3.05;;
76284;SDS011;71676;50.998;7.098;2024-03-23T04:42:32;8.70;;;2.58;;
76284;SDS011;71676;50.998;7.098;2024-03-23T04:44:59;8.48;;;2.70;;
76284;SDS011;71676;50.998;7.098;2024-03-23T04:47:24;9.10;;;2.63;;
76284;SDS011;71676;50.998;7.098;2024-03-23T04:49:51;9.95;;;3.10;;
76284;SDS011;71676;50.998;7.098;2024-03-23T04:52:18;10.18;;;2.75;;
76284;SDS011;71676;50.998;7.098;2024-03-23T04:54:45;7.75;;;2.30;;
76284;SDS011;71676;50.998;7.098;2024-03-23T04:57:12;9.95;;;2.65;;
76284;SDS011;71676;50.998;7.098;2024-03-23T04:59:39;5.35;;;2.13;;
76284;SDS011;71676;50.998;7.098;2024-03-23T05:02:04;8.07;;;2.03;;
76284;SDS011;71676;50.998;7.098;2024-03-23T05:04:31;7.82;;;2.13;;
76284;SDS011;71676;50.998;7.098;2024-03-23T05:06:57;10.82;;;2.20;;
76284;SDS011;71676;50.998;7.098;2024-03-23T05:09:24;7.63;;;2.67;;
76284;SDS011;71676;50.998;7.098;2024-03-23T05:11:55;10.40;;;2.65;;
76284;SDS011;71676;50.998;7.098;2024-03-23T05:14:23;10.05;;;2.67;;
76284;SDS011;71676;50.998;7.098;2024-03-23T05:16:48;8.25;;;2.22;;
76284;SDS011;71676;50.998;7.098;2024-03-23T05:19:15;8.27;;;2.53;;
76284;SDS011;71676;50.998;7.098;2024-03-23T05:21:40;11.30;;;2.28;;
76284;SDS011;71676;50.998;7.098;2024-03-23T05:24:07;5.95;;;2.10;;
76284;SDS011;71676;50.998;7.098;2024-03-23T05:26:33;6.65;;;1.92;;
76284;SDS011;71676;50.998;7.098;2024-03-23T05:29:00;6.18;;;2.00;;
76284;SDS011;71676;50.998;7.098;2024-03-23T05:31:27;7.70;;;1.83;;
76284;SDS011;71676;50.998;7.098;2024-03-23T05:33:55;8.20;;;2.22;;
76284;SDS011;71676;50.998;7.098;2024-03-23T05:36:21;9.05;;;2.13;;
76284;SDS011;71676;50.998;7.098;2024-03-23T05:38:48;7.00;;;2.00;;
76284;SDS011;71676;50.998;7.098;2024-03-23T05:41:14;8.43;;;1.85;;
76284;SDS011;71676;50.998;7.098;2024-03-23T05:43:41;6.40;;;1.52;;
76284;SDS011;71676;50.998;7.098;2024-03-23T05:46:06;8.57;;;1.67;;
76284;SDS011;71676;50.998;7.098;2024-03-23T05:48:35;7.28;;;2.00;;
76284;SDS011;71676;50.998;7.098;2024-03-23T05:51:01;7.22;;;1.83;;
76284;SDS011;71676;50.998;7.098;2024-03-23T05:53:27;9.55;;;2.08;;
76284;SDS011;71676;50.998;7.098;2024-03-23T05:56:00;7.05;;;1.67;;
76284;SDS011;71676;50.998;7.098;2024-03-23T05:58:28;10.32;;;1.77;;
76284;SDS011;71676;50.998;7.098;2024-03-23T06:00:56;7.05;;;2.00;;
76284;SDS011;71676;50.998;7.098;2024-03-23T06:03:24;11.13;;;2.22;;
76284;SDS011;71676;50.998;7.098;2024-03-23T06:05:51;8.27;;;2.30;;
76284;SDS011;71676;50.998;7.098;2024-03-23T06:08:18;9.70;;;2.40;;
76284;SDS011;71676;50.998;7.098;2024-03-23T06:10:44;9.48;;;1.92;;
76284;SDS011;71676;50.998;7.098;2024-03-23T06:13:11;8.82;;;1.92;;
76284;SDS011;71676;50.998;7.098;2024-03-23T06:15:37;5.97;;;1.85;;
76284;SDS011;71676;50.998;7.098;2024-03-23T06:18:04;7.53;;;2.00;;
76284;SDS011;71676;50.998;7.098;2024-03-23T06:20:36;6.53;;;1.70;;
76284;SDS011;71676;50.998;7.098;2024-03-23T06:25:29;7.25;;;2.08;;
76284;SDS011;71676;50.998;7.098;2024-03-23T06:27:56;10.90;;;2.05;;
76284;SDS011;71676;50.998;7.098;2024-03-23T06:30:23;8.95;;;2.00;;
76284;SDS011;71676;50.998;7.098;2024-03-23T06:32:50;9.85;;;1.90;;
76284;SDS011;71676;50.998;7.098;2024-03-23T06:35:15;11.55;;;2.63;;
76284;SDS011;71676;50.998;7.098;2024-03-23T06:37:42;12.63;;;2.97;;
76284;SDS011;71676;50.998;7.098;2024-03-23T06:40:09;6.97;;;1.80;;
76284;SDS011;71676;50.998;7.098;2024-03-23T06:42:36;6.47;;;1.88;;
76284;SDS011;71676;50.998;7.098;2024-03-23T06:45:02;7.10;;;1.98;;
76284;SDS011;71676;50.998;7.098;2024-03-23T06:47:30;9.20;;;2.05;;
76284;SDS011;71676;50.998;7.098;2024-03-23T06:49:55;7.25;;;1.90;;
76284;SDS011;71676;50.998;7.098;2024-03-23T06:52:22;8.20;;;2.00;;
76284;SDS011;71676;50.998;7.098;2024-03-23T06:54:48;9.30;;;2.25;;
76284;SDS011;71676;50.998;7.098;2024-03-23T06:57:16;9.02;;;2.22;;
76284;SDS011;71676;50.998;7.098;2024-03-23T06:59:41;9.43;;;2.35;;
76284;SDS011;71676;50.998;7.098;2024-03-23T07:02:08;11.95;;;2.42;;
76284;SDS011;71676;50.998;7.098;2024-03-23T07:04:34;11.80;;;2.38;;
76284;SDS011;71676;50.998;7.098;2024-03-23T07:07:00;8.77;;;2.05;;
76284;SDS011;71676;50.998;7.098;2024-03-23T07:09:27;8.02;;;2.08;;
76284;SDS011;71676;50.998;7.098;2024-03-23T07:11:54;8.80;;;2.28;;
76284;SDS011;71676;50.998;7.098;2024-03-23T07:14:21;11.32;;;2.67;;
76284;SDS011;71676;50.998;7.098;2024-03-23T07:16:47;5.28;;;1.40;;
76284;SDS011;71676;50.998;7.098;2024-03-23T07:19:14;15.23;;;2.95;;
76284;SDS011;71676;50.998;7.098;2024-03-23T07:21:41;11.27;;;2.65;;
76284;SDS011;71676;50.998;7.098;2024-03-23T07:24:07;12.60;;;2.88;;
76284;SDS011;71676;50.998;7.098;2024-03-23T07:26:34;10.07;;;2.45;;
76284;SDS011;71676;50.998;7.098;2024-03-23T07:29:00;7.40;;;1.92;;
76284;SDS011;71676;50.998;7.098;2024-03-23T07:31:28;14.20;;;2.97;;
76284;SDS011;71676;50.998;7.098;2024-03-23T07:33:53;10.00;;;2.10;;
76284;SDS011;71676;50.998;7.098;2024-03-23T07:36:20;11.85;;;2.83;;
76284;SDS011;71676;50.998;7.098;2024-03-23T07:38:46;16.98;;;2.88;;
76284;SDS011;71676;50.998;7.098;2024-03-23T07:41:14;5.18;;;2.08;;
76284;SDS011;71676;50.998;7.098;2024-03-23T07:43:42;11.63;;;3.03;;
76284;SDS011;71676;50.998;7.098;2024-03-23T07:46:09;10.07;;;2.33;;
76284;SDS011;71676;50.998;7.098;2024-03-23T07:48:36;6.18;;;1.98;;
76284;SDS011;71676;50.998;7.098;2024-03-23T07:51:04;13.23;;;4.18;;
76284;SDS011;71676;50.998;7.098;2024-03-23T07:53:30;10.93;;;3.40;;
76284;SDS011;71676;50.998;7.098;2024-03-23T07:55:58;13.05;;;3.90;;
76284;SDS011;71676;50.998;7.098;2024-03-23T07:58:25;11.80;;;3.17;;
76284;SDS011;71676;50.998;7.098;2024-03-23T08:00:52;11.70;;;3.60;;
76284;SDS011;71676;50.998;7.098;2024-03-23T08:05:46;11.70;;;3.85;;
76284;SDS011;71676;50.998;7.098;2024-03-23T08:08:12;12.57;;;4.07;;
76284;SDS011;71676;50.998;7.098;2024-03-23T08:10:46;12.05;;;4.95;;
76284;SDS011;71676;50.998;7.098;2024-03-23T08:13:13;9.32;;;3.97;;
76284;SDS011;71676;50.998;7.098;2024-03-23T08:15:39;13.07;;;5.78;;
76284;SDS011;71676;50.998;7.098;2024-03-23T08:18:05;11.30;;;5.55;;
76284;SDS011;71676;50.998;7.098;2024-03-23T08:20:32;11.98;;;5.05;;
76284;SDS011;71676;50.998;7.098;2024-03-23T08:22:59;11.73;;;4.70;;
76284;SDS011;71676;50.998;7.098;2024-03-23T08:25:26;12.40;;;4.30;;
76284;SDS011;71676;50.998;7.098;2024-03-23T08:27:51;13.40;;;5.15;;
76284;SDS011;71676;50.998;7.098;2024-03-23T08:30:18;10.65;;;4.35;;
76284;SDS011;71676;50.998;7.098;2024-03-23T08:32:44;11.73;;;4.20;;
76284;SDS011;71676;50.998;7.098;2024-03-23T08:35:11;10.43;;;3.75;;
76284;SDS011;71676;50.998;7.098;2024-03-23T08:37:36;11.63;;;4.10;;
76284;SDS011;71676;50.998;7.098;2024-03-23T08:40:05;11.52;;;3.70;;
76284;SDS011;71676;50.998;7.098;2024-03-23T08:42:31;9.13;;;4.05;;
76284;SDS011;71676;50.998;7.098;2024-03-23T08:44:58;9.02;;;3.28;;
76284;SDS011;71676;50.998;7.098;2024-03-23T08:47:24;10.00;;;3.55;;
76284;SDS011;71676;50.998;7.098;2024-03-23T08:49:50;9.38;;;3.03;;
76284;SDS011;71676;50.998;7.098;2024-03-23T08:52:16;12.57;;;3.28;;
76284;SDS011;71676;50.998;7.098;2024-03-23T08:54:43;10.52;;;2.25;;
76284;SDS011;71676;50.998;7.098;2024-03-23T08:57:10;10.93;;;3.55;;
76284;SDS011;71676;50.998;7.098;2024-03-23T08:59:37;7.97;;;2.22;;
76284;SDS011;71676;50.998;7.098;2024-03-23T09:02:03;7.85;;;2.83;;
76284;SDS011;71676;50.998;7.098;2024-03-23T09:04:30;8.13;;;2.17;;
76284;SDS011;71676;50.998;7.098;2024-03-23T09:06:56;5.28;;;2.17;;
76284;SDS011;71676;50.998;7.098;2024-03-23T09:09:24;4.63;;;2.30;;
76284;SDS011;71676;50.998;7.098;2024-03-23T09:11:49;8.57;;;3.40;;
76284;SDS011;71676;50.998;7.098;2024-03-23T09:14:17;6.32;;;2.70;;
76284;SDS011;71676;50.998;7.098;2024-03-23T09:16:44;8.57;;;3.25;;
76284;SDS011;71676;50.998;7.098;2024-03-23T09:19:10;9.63;;;3.40;;
76284;SDS011;71676;50.998;7.098;2024-03-23T09:21:36;9.20;;;3.65;;
76284;SDS011;71676;50.998;7.098;2024-03-23T09:24:03;8.57;;;3.60;;
76284;SDS011;71676;50.998;7.098;2024-03-23T09:28:55;11.25;;;3.63;;
76284;SDS011;71676;50.998;7.098;2024-03-23T09:31:22;13.80;;;3.45;;
76284;SDS011;71676;50.998;7.098;2024-03-23T09:33:49;7.93;;;3.00;;
76284;SDS011;71676;50.998;7.098;2024-03-23T09:38:41;6.63;;;2.38;;
76284;SDS011;71676;50.998;7.098;2024-03-23T09:41:07;7.53;;;2.67;;
76284;SDS011;71676;50.998;7.098;2024-03-23T09:43:35;8.38;;;2.83;;
76284;SDS011;71676;50.998;7.098;2024-03-23T09:48:29;8.93;;;3.00;;
76284;SDS011;71676;50.998;7.098;2024-03-23T09:50:55;9.48;;;2.70;;
76284;SDS011;71676;50.998;7.098;2024-03-23T09:53:22;9.32;;;2.78;;
76284;SDS011;71676;50.998;7.098;2024-03-23T09:58:17;9.48;;;2.42;;
76284;SDS011;71676;50.998;7.098;2024-03-23T10:00:43;5.63;;;1.75;;
76284;SDS011;71676;50.998;7.098;2024-03-23T10:03:10;7.22;;;2.08;;
76284;SDS011;71676;50.998;7.098;2024-03-23T10:05:37;8.07;;;2.60;;
76284;SDS011;71676;50.998;7.098;2024-03-23T10:08:17;5.95;;;1.92;;
76284;SDS011;71676;50.998;7.098;2024-03-23T10:10:44;6.55;;;2.15;;
76284;SDS011;71676;50.998;7.098;2024-03-23T10:13:11;6.90;;;2.10;;
76284;SDS011;71676;50.998;7.098;2024-03-23T10:15:51;7.53;;;2.60;;
76284;SDS011;71676;50.998;7.098;2024-03-23T10:18:20;5.65;;;1.70;;
76284;SDS011;71676;50.998;7.098;2024-03-23T10:20:50;7.10;;;1.70;;
76284;SDS011;71676;50.998;7.098;2024-03-23T10:23:17;9.25;;;2.17;;
76284;SDS011;71676;50.998;7.098;2024-03-23T10:25:44;7.82;;;1.90;;
76284;SDS011;71676;50.998;7.098;2024-03-23T10:28:11;6.75;;;1.85;;
76284;SDS011;71676;50.998;7.098;2024-03-23T10:30:37;3.90;;;1.30;;
76284;SDS011;71676;50.998;7.098;2024-03-23T10:35:33;5.10;;;1.55;;
76284;SDS011;71676;50.998;7.098;2024-03-23T10:38:00;6.28;;;1.63;;
76284;SDS011;71676;50.998;7.098;2024-03-23T10:40:29;7.40;;;2.05;;
76284;SDS011;71676;50.998;7.098;2024-03-23T10:42:55;3.75;;;1.17;;
76284;SDS011;71676;50.998;7.098;2024-03-23T10:45:24;6.43;;;1.60;;
76284;SDS011;71676;50.998;7.098;2024-03-23T10:50:17;4.63;;;1.80;;
76284;SDS011;71676;50.998;7.098;2024-03-23T10:55:13;4.63;;;1.10;;
76284;SDS011;71676;50.998;7.098;2024-03-23T10:57:43;2.45;;;1.10;;
76284;SDS011;71676;50.998;7.098;2024-03-23T11:00:12;4.55;;;1.10;;
76284;SDS011;71676;50.998;7.098;2024-03-23T11:02:38;3.78;;;0.90;;
76284;SDS011;71676;50.998;7.098;2024-03-23T11:05:17;4.50;;;1.05;;
76284;SDS011;71676;50.998;7.098;2024-03-23T11:07:53;5.45;;;1.75;;
76284;SDS011;71676;50.998;7.098;2024-03-23T11:10:28;2.90;;;1.02;;
76284;SDS011;71676;50.998;7.098;2024-03-23T11:12:55;2.92;;;0.90;;
76284;SDS011;71676;50.998;7.098;2024-03-23T11:15:22;6.68;;;1.38;;
76284;SDS011;71676;50.998;7.098;2024-03-23T11:20:31;4.13;;;1.02;;
76284;SDS011;71676;50.998;7.098;2024-03-23T11:22:57;4.60;;;1.40;;
76284;SDS011;71676;50.998;7.098;2024-03-23T11:25:24;2.08;;;1.13;;
76284;SDS011;71676;50.998;7.098;2024-03-23T11:27:52;3.63;;;1.13;;
76284;SDS011;71676;50.998;7.098;2024-03-23T11:30:20;2.65;;;1.10;;
76284;SDS011;71676;50.998;7.098;2024-03-23T11:32:47;5.15;;;1.15;;
76284;SDS011;71676;50.998;7.098;2024-03-23T11:35:24;4.55;;;1.00;;
76284;SDS011;71676;50.998;7.098;2024-03-23T11:38:03;4.65;;;1.17;;
76284;SDS011;71676;50.998;7.098;2024-03-23T11:40:31;2.20;;;1.35;;
76284;SDS011;71676;50.998;7.098;2024-03-23T11:42:59;3.85;;;1.10;;
76284;SDS011;71676;50.998;7.098;2024-03-23T11:45:27;2.67;;;1.17;;
76284;SDS011;71676;50.998;7.098;2024-03-23T11:48:04;3.15;;;0.93;;
76284;SDS011;71676;50.998;7.098;2024-03-23T11:50:31;2.47;;;1.00;;
76284;SDS011;71676;50.998;7.098;2024-03-23T11:53:14;3.20;;;1.00;;
76284;SDS011;71676;50.998;7.098;2024-03-23T11:55:42;3.70;;;1.10;;
76284;SDS011;71676;50.998;7.098;2024-03-23T11:58:10;2.88;;;0.90;;
76284;SDS011;71676;50.998;7.098;2024-03-23T12:00:37;1.73;;;0.93;;
76284;SDS011;71676;50.998;7.098;2024-03-23T12:03:03;1.90;;;0.90;;
76284;SDS011;71676;50.998;7.098;2024-03-23T12:05:30;2.58;;;0.75;;
76284;SDS011;71676;50.998;7.098;2024-03-23T12:10:43;1.55;;;0.90;;
76284;SDS011;71676;50.998;7.098;2024-03-23T12:13:12;1.48;;;0.90;;
76284;SDS011;71676;50.998;7.098;2024-03-23T12:15:40;4.38;;;1.38;;
76284;SDS011;71676;50.998;7.098;2024-03-23T12:18:07;3.15;;;1.05;;
76284;SDS011;71676;50.998;7.098;2024-03-23T12:20:33;3.95;;;1.20;;
76284;SDS011;71676;50.998;7.098;2024-03-23T12:23:06;2.17;;;0.93;;
76284;SDS011;71676;50.998;7.098;2024-03-23T12:25:32;3.63;;;1.85;;
76284;SDS011;71676;50.998;7.098;2024-03-23T12:27:59;3.15;;;1.30;;
76284;SDS011;71676;50.998;7.098;2024-03-23T12:30:26;4.70;;;1.63;;
76284;SDS011;71676;50.998;7.098;2024-03-23T12:32:53;3.78;;;1.15;;
76284;SDS011;71676;50.998;7.098;2024-03-23T12:35:19;2.25;;;1.05;;
76284;SDS011;71676;50.998;7.098;2024-03-23T12:37:45;2.33;;;1.10;;
76284;SDS011;71676;50.998;7.098;2024-03-23T12:40:11;3.72;;;1.02;;
76284;SDS011;71676;50.998;7.098;2024-03-23T12:42:37;1.88;;;1.10;;
76284;SDS011;71676;50.998;7.098;2024-03-23T12:45:04;2.75;;;1.50;;
76284;SDS011;71676;50.998;7.098;2024-03-23T12:47:49;2.72;;;1.10;;
76284;SDS011;71676;50.998;7.098;2024-03-23T12:54:33;1.23;;;0.80;;
76284;SDS011;71676;50.998;7.098;2024-03-23T12:57:00;2.58;;;1.25;;
76284;SDS011;71676;50.998;7.098;2024-03-23T12:59:27;2.72;;;1.00;;
76284;SDS011;71676;50.998;7.098;2024-03-23T13:01:54;2.78;;;1.10;;
76284;SDS011;71676;50.998;7.098;2024-03-23T13:04:21;1.67;;;0.90;;
76284;SDS011;71676;50.998;7.098;2024-03-23T13:06:48;1.55;;;0.77;;
76284;SDS011;71676;50.998;7.098;2024-03-23T13:09:13;2.53;;;0.80;;
76284;SDS011;71676;50.998;7.098;2024-03-23T13:11:42;1.63;;;0.80;;
76284;SDS011;71676;50.998;7.098;2024-03-23T13:14:07;2.08;;;0.80;;
76284;SDS011;71676;50.998;7.098;2024-03-23T13:16:34;2.47;;;0.90;;
76284;SDS011;71676;50.998;7.098;2024-03-23T13:19:00;1.15;;;0.80;;
76284;SDS011;71676;50.998;7.098;2024-03-23T13:21:28;1.77;;;0.85;;
76284;SDS011;71676;50.998;7.098;2024-03-23T13:23:54;2.80;;;1.30;;
76284;SDS011;71676;50.998;7.098;2024-03-23T13:26:20;2.85;;;1.13;;
76284;SDS011;71676;50.998;7.098;2024-03-23T13:28:46;1.63;;;0.80;;
76284;SDS011;71676;50.998;7.098;2024-03-23T13:31:13;2.08;;;1.02;;
76284;SDS011;71676;50.998;7.098;2024-03-23T13:33:38;3.40;;;1.00;;
76284;SDS011;71676;50.998;7.098;2024-03-23T13:36:07;2.35;;;1.08;;
76284;SDS011;71676;50.998;7.098;2024-03-23T13:41:01;1.98;;;1.10;;
76284;SDS011;71676;50.998;7.098;2024-03-23T13:43:29;4.00;;;1.10;;
76284;SDS011;71676;50.998;7.098;2024-03-23T13:45:57;6.40;;;1.30;;
76284;SDS011;71676;50.998;7.098;2024-03-23T13:48:25;3.03;;;1.10;;
76284;SDS011;71676;50.998;7.098;2024-03-23T13:50:57;5.57;;;1.42;;
76284;SDS011;71676;50.998;7.098;2024-03-23T13:53:23;4.85;;;1.40;;
76284;SDS011;71676;50.998;7.098;2024-03-23T13:55:51;3.47;;;1.20;;
76284;SDS011;71676;50.998;7.098;2024-03-23T13:58:17;5.97;;;1.40;;
76284;SDS011;71676;50.998;7.098;2024-03-23T14:00:43;4.50;;;1.70;;
76284;SDS011;71676;50.998;7.098;2024-03-23T14:05:35;5.25;;;1.40;;
76284;SDS011;71676;50.998;7.098;2024-03-23T14:08:03;4.93;;;1.63;;
76284;SDS011;71676;50.998;7.098;2024-03-23T14:10:31;2.63;;;1.40;;
76284;SDS011;71676;50.998;7.098;2024-03-23T14:12:58;3.53;;;1.00;;
76284;SDS011;71676;50.998;7.098;2024-03-23T14:15:25;1.63;;;1.10;;
76284;SDS011;71676;50.998;7.098;2024-03-23T14:17:55;2.60;;;1.85;;
76284;SDS011;71676;50.998;7.098;2024-03-23T14:20:22;3.75;;;0.98;;
76284;SDS011;71676;50.998;7.098;2024-03-23T14:22:48;1.65;;;0.73;;
76284;SDS011;71676;50.998;7.098;2024-03-23T14:25:15;1.95;;;1.10;;
76284;SDS011;71676;50.998;7.098;2024-03-23T14:27:43;2.78;;;0.90;;
76284;SDS011;71676;50.998;7.098;2024-03-23T14:30:12;4.35;;;0.88;;
76284;SDS011;71676;50.998;7.098;2024-03-23T14:32:39;5.00;;;0.85;;
76284;SDS011;71676;50.998;7.098;2024-03-23T14:35:06;5.18;;;1.00;;
76284;SDS011;71676;50.998;7.098;2024-03-23T14:37:35;2.75;;;1.10;;
76284;SDS011;71676;50.998;7.098;2024-03-23T14:40:03;2.75;;;1.15;;
76284;SDS011;71676;50.998;7.098;2024-03-23T14:42:29;1.83;;;1.00;;
76284;SDS011;71676;50.998;7.098;2024-03-23T14:44:56;2.60;;;1.20;;
76284;SDS011;71676;50.998;7.098;2024-03-23T14:47:23;3.40;;;1.10;;
76284;SDS011;71676;50.998;7.098;2024-03-23T14:49:50;2.85;;;1.02;;
76284;SDS011;71676;50.998;7.098;2024-03-23T14:54:43;4.40;;;1.50;;
76284;SDS011;71676;50.998;7.098;2024-03-23T14:57:09;6.10;;;1.50;;
76284;SDS011;71676;50.998;7.098;2024-03-23T14:59:36;2.45;;;1.10;;
76284;SDS011;71676;50.998;7.098;2024-03-23T15:02:03;5.00;;;1.70;;
76284;SDS011;71676;50.998;7.098;2024-03-23T15:04:31;3.22;;;0.98;;
76284;SDS011;71676;50.998;7.098;2024-03-23T15:06:57;5.35;;;1.25;;
76284;SDS011;71676;50.998;7.098;2024-03-23T15:09:24;5.95;;;1.50;;
76284;SDS011;71676;50.998;7.098;2024-03-23T15:11:49;3.83;;;1.10;;
76284;SDS011;71676;50.998;7.098;2024-03-23T15:14:16;5.82;;;1.40;;
76284;SDS011;71676;50.998;7.098;2024-03-23T15:16:41;4.43;;;1.58;;
76284;SDS011;71676;50.998;7.098;2024-03-23T15:19:08;3.33;;;0.98;;
76284;SDS011;71676;50.998;7.098;2024-03-23T15:21:35;3.08;;;0.90;;
76284;SDS011;71676;50.998;7.098;2024-03-23T15:24:02;3.08;;;0.98;;
76284;SDS011;71676;50.998;7.098;2024-03-23T15:28:54;2.28;;;0.90;;
76284;SDS011;71676;50.998;7.098;2024-03-23T15:31:35;1.73;;;0.90;;
76284;SDS011;71676;50.998;7.098;2024-03-23T15:34:02;2.30;;;1.10;;
76284;SDS011;71676;50.998;7.098;2024-03-23T15:36:28;3.47;;;1.00;;
76284;SDS011;71676;50.998;7.098;2024-03-23T15:38:56;3.38;;;1.13;;
76284;SDS011;71676;50.998;7.098;2024-03-23T15:41:22;3.92;;;1.48;;
76284;SDS011;71676;50.998;7.098;2024-03-23T15:43:49;5.07;;;1.10;;
76284;SDS011;71676;50.998;7.098;2024-03-23T15:46:15;2.05;;;1.10;;
76284;SDS011;71676;50.998;7.098;2024-03-23T15:48:44;4.28;;;1.20;;
76284;SDS011;71676;50.998;7.098;2024-03-23T15:51:11;3.28;;;1.13;;
76284;SDS011;71676;50.998;7.098;2024-03-23T15:53:38;2.50;;;1.10;;
76284;SDS011;71676;50.998;7.098;2024-03-23T15:56:06;3.45;;;1.30;;
76284;SDS011;71676;50.998;7.098;2024-03-23T15:58:33;3.85;;;1.13;;
76284;SDS011;71676;50.998;7.098;2024-03-23T16:01:00;4.80;;;1.40;;
76284;SDS011;71676;50.998;7.098;2024-03-23T16:03:27;3.65;;;1.10;;
76284;SDS011;71676;50.998;7.098;2024-03-23T16:05:54;4.60;;;1.38;;
76284;SDS011;71676;50.998;7.098;2024-03-23T16:08:22;3.85;;;1.40;;
76284;SDS011;71676;50.998;7.098;2024-03-23T16:10:48;3.05;;;1.17;;
76284;SDS011;71676;50.998;7.098;2024-03-23T16:15:41;3.03;;;1.17;;
76284;SDS011;71676;50.998;7.098;2024-03-23T16:18:08;3.42;;;1.27;;
76284;SDS011;71676;50.998;7.098;2024-03-23T16:20:34;3.85;;;1.38;;
76284;SDS011;71676;50.998;7.098;2024-03-23T16:23:01;3.42;;;1.38;;
76284;SDS011;71676;50.998;7.098;2024-03-23T16:27:54;5.22;;;1.77;;
76284;SDS011;71676;50.998;7.098;2024-03-23T16:30:20;5.05;;;1.90;;
76284;SDS011;71676;50.998;7.098;2024-03-23T16:32:48;4.10;;;1.75;;
76284;SDS011;71676;50.998;7.098;2024-03-23T16:35:14;5.97;;;1.73;;